SBCJ/CKS METAR and TAF weather

Enter ICAO airport designator
Station Type Date Time Source
SBCJ METAR 2019/08/25 18:00 UTC NOAA

SBCJ 251800Z 08005KT 9999 SCT030 30/17 Q1016


Station Type Date Time Source
SBCJ Decoded METAR 2019/08/25 18:00 UTC NOAA

Station name not available
Aug 25, 2019 - 02:00 PM EDT / 2019.08.25 1800 UTC
Wind: from the E (080 degrees) at 6 MPH (5 KT):0
Visibility: greater than 7 mile(s):0
Sky conditions: partly cloudy
Temperature: 86 F (30 C)
Dew Point: 62 F (17 C)
Relative Humidity: 45%
Pressure (altimeter): 30.00 in. Hg (1016 hPa)
ob: SBCJ 251800Z 08005KT 9999 SCT030 30/17 Q1016
cycle: 18

Station Type Date Time Source
SBCJ TAF 2019/08/25 18:59 UTC NOAA

TAF SBCJ 251500Z 2518/2606 00000KT 9999 FEW025 TX29/2519Z TN23/2606Z
RMK PGY

Example: see airport list